sensor_id;sensor_type;location;lat;lon;timestamp;P1;durP1;ratioP1;P2;durP2;ratioP2
29550;SDS011;16488;52.396;10.696;2023-04-12T00:02:10;11.40;;;5.63;;
29550;SDS011;16488;52.396;10.696;2023-04-12T00:04:35;11.75;;;4.88;;
29550;SDS011;16488;52.396;10.696;2023-04-12T00:07:01;17.60;;;5.35;;
29550;SDS011;16488;52.396;10.696;2023-04-12T00:09:29;9.13;;;5.40;;
29550;SDS011;16488;52.396;10.696;2023-04-12T00:11:59;13.13;;;5.03;;
29550;SDS011;16488;52.396;10.696;2023-04-12T00:14:25;9.40;;;5.40;;
29550;SDS011;16488;52.396;10.696;2023-04-12T00:16:51;11.23;;;5.25;;
29550;SDS011;16488;52.396;10.696;2023-04-12T00:19:17;12.13;;;5.43;;
29550;SDS011;16488;52.396;10.696;2023-04-12T00:21:43;12.38;;;5.60;;
29550;SDS011;16488;52.396;10.696;2023-04-12T00:24:09;15.18;;;5.13;;
29550;SDS011;16488;52.396;10.696;2023-04-12T00:26:35;11.73;;;4.60;;
29550;SDS011;16488;52.396;10.696;2023-04-12T00:29:00;12.20;;;4.95;;
29550;SDS011;16488;52.396;10.696;2023-04-12T00:31:26;11.85;;;4.57;;
29550;SDS011;16488;52.396;10.696;2023-04-12T00:33:52;7.78;;;5.00;;
29550;SDS011;16488;52.396;10.696;2023-04-12T00:36:17;9.25;;;4.57;;
29550;SDS011;16488;52.396;10.696;2023-04-12T00:38:43;18.75;;;5.15;;
29550;SDS011;16488;52.396;10.696;2023-04-12T00:41:12;14.50;;;5.85;;
29550;SDS011;16488;52.396;10.696;2023-04-12T00:43:39;10.07;;;3.95;;
29550;SDS011;16488;52.396;10.696;2023-04-12T00:46:06;12.68;;;4.03;;
29550;SDS011;16488;52.396;10.696;2023-04-12T00:50:57;18.00;;;3.92;;
29550;SDS011;16488;52.396;10.696;2023-04-12T00:53:25;10.10;;;4.20;;
29550;SDS011;16488;52.396;10.696;2023-04-12T00:55:52;10.48;;;3.90;;
29550;SDS011;16488;52.396;10.696;2023-04-12T00:58:20;13.10;;;4.47;;
29550;SDS011;16488;52.396;10.696;2023-04-12T01:00:48;11.60;;;3.20;;
29550;SDS011;16488;52.396;10.696;2023-04-12T01:03:16;10.02;;;3.10;;
29550;SDS011;16488;52.396;10.696;2023-04-12T01:08:27;15.27;;;4.18;;
29550;SDS011;16488;52.396;10.696;2023-04-12T01:13:40;9.48;;;3.60;;
29550;SDS011;16488;52.396;10.696;2023-04-12T01:27:49;12.95;;;3.33;;
29550;SDS011;16488;52.396;10.696;2023-04-12T01:30:29;8.70;;;2.85;;
29550;SDS011;16488;52.396;10.696;2023-04-12T01:32:58;11.82;;;3.30;;
29550;SDS011;16488;52.396;10.696;2023-04-12T01:35:27;5.88;;;3.78;;
29550;SDS011;16488;52.396;10.696;2023-04-12T01:37:55;5.32;;;3.00;;
29550;SDS011;16488;52.396;10.696;2023-04-12T01:40:21;10.25;;;4.45;;
29550;SDS011;16488;52.396;10.696;2023-04-12T01:45:13;10.00;;;2.65;;
29550;SDS011;16488;52.396;10.696;2023-04-12T01:47:39;6.22;;;2.50;;
29550;SDS011;16488;52.396;10.696;2023-04-12T01:50:11;6.03;;;2.97;;
29550;SDS011;16488;52.396;10.696;2023-04-12T01:52:47;7.55;;;2.85;;
29550;SDS011;16488;52.396;10.696;2023-04-12T01:55:18;7.20;;;2.70;;
29550;SDS011;16488;52.396;10.696;2023-04-12T01:57:46;7.03;;;2.90;;
29550;SDS011;16488;52.396;10.696;2023-04-12T02:00:13;9.27;;;3.42;;
29550;SDS011;16488;52.396;10.696;2023-04-12T02:02:41;5.82;;;2.70;;
29550;SDS011;16488;52.396;10.696;2023-04-12T02:07:33;6.03;;;3.10;;
29550;SDS011;16488;52.396;10.696;2023-04-12T02:10:00;9.05;;;3.85;;
29550;SDS011;16488;52.396;10.696;2023-04-12T02:12:25;8.40;;;2.58;;
29550;SDS011;16488;52.396;10.696;2023-04-12T02:14:51;9.48;;;3.00;;
29550;SDS011;16488;52.396;10.696;2023-04-12T02:17:17;8.15;;;2.95;;
29550;SDS011;16488;52.396;10.696;2023-04-12T02:19:43;6.28;;;3.25;;
29550;SDS011;16488;52.396;10.696;2023-04-12T02:22:09;5.88;;;3.30;;
29550;SDS011;16488;52.396;10.696;2023-04-12T02:24:35;12.00;;;3.65;;
29550;SDS011;16488;52.396;10.696;2023-04-12T02:27:00;11.05;;;3.38;;
29550;SDS011;16488;52.396;10.696;2023-04-12T02:29:26;10.55;;;3.15;;
29550;SDS011;16488;52.396;10.696;2023-04-12T02:31:52;6.63;;;2.72;;
29550;SDS011;16488;52.396;10.696;2023-04-12T02:34:17;9.90;;;2.53;;
29550;SDS011;16488;52.396;10.696;2023-04-12T02:36:46;6.20;;;3.10;;
29550;SDS011;16488;52.396;10.696;2023-04-12T02:39:13;6.07;;;2.70;;
29550;SDS011;16488;52.396;10.696;2023-04-12T02:41:38;8.73;;;3.03;;
29550;SDS011;16488;52.396;10.696;2023-04-12T02:44:04;4.10;;;2.72;;
29550;SDS011;16488;52.396;10.696;2023-04-12T02:46:29;8.02;;;2.60;;
29550;SDS011;16488;52.396;10.696;2023-04-12T02:48:55;4.63;;;2.03;;
29550;SDS011;16488;52.396;10.696;2023-04-12T02:51:21;6.57;;;2.65;;
29550;SDS011;16488;52.396;10.696;2023-04-12T02:53:46;5.97;;;2.47;;
29550;SDS011;16488;52.396;10.696;2023-04-12T02:56:12;4.03;;;2.83;;
29550;SDS011;16488;52.396;10.696;2023-04-12T02:58:37;9.18;;;3.63;;
29550;SDS011;16488;52.396;10.696;2023-04-12T03:01:03;6.90;;;2.30;;
29550;SDS011;16488;52.396;10.696;2023-04-12T03:03:35;6.97;;;3.22;;
29550;SDS011;16488;52.396;10.696;2023-04-12T03:06:00;8.65;;;3.90;;
29550;SDS011;16488;52.396;10.696;2023-04-12T03:08:26;5.32;;;2.60;;
29550;SDS011;16488;52.396;10.696;2023-04-12T03:10:52;5.45;;;2.40;;
29550;SDS011;16488;52.396;10.696;2023-04-12T03:13:17;7.30;;;3.08;;
29550;SDS011;16488;52.396;10.696;2023-04-12T03:15:43;6.07;;;3.72;;
29550;SDS011;16488;52.396;10.696;2023-04-12T03:18:10;11.07;;;3.03;;
29550;SDS011;16488;52.396;10.696;2023-04-12T03:20:36;6.40;;;3.00;;
29550;SDS011;16488;52.396;10.696;2023-04-12T03:23:03;8.10;;;3.08;;
29550;SDS011;16488;52.396;10.696;2023-04-12T03:25:29;7.82;;;3.13;;
29550;SDS011;16488;52.396;10.696;2023-04-12T03:27:55;7.22;;;3.17;;
29550;SDS011;16488;52.396;10.696;2023-04-12T03:30:20;11.73;;;2.53;;
29550;SDS011;16488;52.396;10.696;2023-04-12T03:32:46;9.38;;;2.72;;
29550;SDS011;16488;52.396;10.696;2023-04-12T03:35:12;10.68;;;2.70;;
29550;SDS011;16488;52.396;10.696;2023-04-12T03:37:39;8.18;;;3.40;;
29550;SDS011;16488;52.396;10.696;2023-04-12T03:40:06;6.80;;;3.50;;
29550;SDS011;16488;52.396;10.696;2023-04-12T03:42:33;6.60;;;2.67;;
29550;SDS011;16488;52.396;10.696;2023-04-12T03:44:58;5.78;;;2.67;;
29550;SDS011;16488;52.396;10.696;2023-04-12T03:47:24;11.40;;;3.03;;
29550;SDS011;16488;52.396;10.696;2023-04-12T03:49:50;5.82;;;2.67;;
29550;SDS011;16488;52.396;10.696;2023-04-12T03:52:18;6.55;;;2.85;;
29550;SDS011;16488;52.396;10.696;2023-04-12T03:54:44;11.90;;;3.25;;
29550;SDS011;16488;52.396;10.696;2023-04-12T03:57:10;3.08;;;2.10;;
29550;SDS011;16488;52.396;10.696;2023-04-12T03:59:35;9.93;;;2.80;;
29550;SDS011;16488;52.396;10.696;2023-04-12T04:02:01;8.90;;;2.83;;
29550;SDS011;16488;52.396;10.696;2023-04-12T04:04:27;6.43;;;2.40;;
29550;SDS011;16488;52.396;10.696;2023-04-12T04:06:52;7.43;;;2.63;;
29550;SDS011;16488;52.396;10.696;2023-04-12T04:09:18;3.13;;;2.47;;
29550;SDS011;16488;52.396;10.696;2023-04-12T04:11:44;4.88;;;2.30;;
29550;SDS011;16488;52.396;10.696;2023-04-12T04:14:11;11.63;;;4.43;;
29550;SDS011;16488;52.396;10.696;2023-04-12T04:16:36;3.83;;;2.67;;
29550;SDS011;16488;52.396;10.696;2023-04-12T04:19:02;7.55;;;3.45;;
29550;SDS011;16488;52.396;10.696;2023-04-12T04:21:28;5.95;;;3.15;;
29550;SDS011;16488;52.396;10.696;2023-04-12T04:23:59;7.93;;;3.45;;
29550;SDS011;16488;52.396;10.696;2023-04-12T04:26:26;4.80;;;2.63;;
29550;SDS011;16488;52.396;10.696;2023-04-12T04:28:57;5.18;;;2.70;;
29550;SDS011;16488;52.396;10.696;2023-04-12T04:31:27;5.50;;;3.13;;
29550;SDS011;16488;52.396;10.696;2023-04-12T04:34:04;6.68;;;2.88;;
29550;SDS011;16488;52.396;10.696;2023-04-12T04:36:31;3.65;;;2.60;;
29550;SDS011;16488;52.396;10.696;2023-04-12T04:38:58;4.68;;;2.60;;
29550;SDS011;16488;52.396;10.696;2023-04-12T04:41:24;10.82;;;3.22;;
29550;SDS011;16488;52.396;10.696;2023-04-12T04:43:50;7.38;;;2.85;;
29550;SDS011;16488;52.396;10.696;2023-04-12T04:46:16;7.90;;;2.75;;
29550;SDS011;16488;52.396;10.696;2023-04-12T04:48:45;7.65;;;3.25;;
29550;SDS011;16488;52.396;10.696;2023-04-12T04:51:12;6.35;;;2.55;;
29550;SDS011;16488;52.396;10.696;2023-04-12T04:53:38;11.15;;;2.47;;
29550;SDS011;16488;52.396;10.696;2023-04-12T04:56:04;4.30;;;2.58;;
29550;SDS011;16488;52.396;10.696;2023-04-12T04:58:30;5.78;;;2.85;;
29550;SDS011;16488;52.396;10.696;2023-04-12T05:00:56;4.78;;;2.83;;
29550;SDS011;16488;52.396;10.696;2023-04-12T05:03:23;16.65;;;3.22;;
29550;SDS011;16488;52.396;10.696;2023-04-12T05:05:52;9.25;;;3.13;;
29550;SDS011;16488;52.396;10.696;2023-04-12T05:08:20;4.40;;;2.53;;
29550;SDS011;16488;52.396;10.696;2023-04-12T05:10:49;7.35;;;3.53;;
29550;SDS011;16488;52.396;10.696;2023-04-12T05:13:17;5.68;;;3.05;;
29550;SDS011;16488;52.396;10.696;2023-04-12T05:15:46;9.48;;;3.47;;
29550;SDS011;16488;52.396;10.696;2023-04-12T05:18:12;6.78;;;3.05;;
29550;SDS011;16488;52.396;10.696;2023-04-12T05:20:39;8.52;;;3.08;;
29550;SDS011;16488;52.396;10.696;2023-04-12T05:23:05;5.78;;;3.00;;
29550;SDS011;16488;52.396;10.696;2023-04-12T05:25:31;9.55;;;2.80;;
29550;SDS011;16488;52.396;10.696;2023-04-12T05:27:57;9.40;;;4.72;;
29550;SDS011;16488;52.396;10.696;2023-04-12T05:30:23;7.82;;;3.17;;
29550;SDS011;16488;52.396;10.696;2023-04-12T05:32:48;5.25;;;2.58;;
29550;SDS011;16488;52.396;10.696;2023-04-12T05:35:14;4.72;;;2.90;;
29550;SDS011;16488;52.396;10.696;2023-04-12T05:37:40;10.70;;;3.78;;
29550;SDS011;16488;52.396;10.696;2023-04-12T05:40:05;5.60;;;2.85;;
29550;SDS011;16488;52.396;10.696;2023-04-12T05:42:33;8.65;;;4.00;;
29550;SDS011;16488;52.396;10.696;2023-04-12T05:45:01;8.20;;;3.40;;
29550;SDS011;16488;52.396;10.696;2023-04-12T05:47:27;9.75;;;2.75;;
29550;SDS011;16488;52.396;10.696;2023-04-12T05:49:53;7.15;;;3.17;;
29550;SDS011;16488;52.396;10.696;2023-04-12T05:52:19;4.43;;;2.55;;
29550;SDS011;16488;52.396;10.696;2023-04-12T05:54:45;9.85;;;3.90;;
29550;SDS011;16488;52.396;10.696;2023-04-12T05:57:10;10.52;;;3.38;;
29550;SDS011;16488;52.396;10.696;2023-04-12T05:59:36;8.43;;;3.42;;
29550;SDS011;16488;52.396;10.696;2023-04-12T06:02:02;8.77;;;3.10;;
29550;SDS011;16488;52.396;10.696;2023-04-12T06:04:27;5.70;;;3.17;;
29550;SDS011;16488;52.396;10.696;2023-04-12T06:06:53;11.65;;;4.18;;
29550;SDS011;16488;52.396;10.696;2023-04-12T06:09:20;6.78;;;2.88;;
29550;SDS011;16488;52.396;10.696;2023-04-12T06:11:46;6.78;;;2.42;;
29550;SDS011;16488;52.396;10.696;2023-04-12T06:14:11;7.85;;;2.92;;
29550;SDS011;16488;52.396;10.696;2023-04-12T06:16:37;6.78;;;2.80;;
29550;SDS011;16488;52.396;10.696;2023-04-12T06:19:02;14.52;;;3.13;;
29550;SDS011;16488;52.396;10.696;2023-04-12T06:21:29;5.90;;;2.47;;
29550;SDS011;16488;52.396;10.696;2023-04-12T06:23:54;6.00;;;2.70;;
29550;SDS011;16488;52.396;10.696;2023-04-12T06:26:20;6.35;;;3.05;;
29550;SDS011;16488;52.396;10.696;2023-04-12T06:28:46;5.15;;;2.67;;
29550;SDS011;16488;52.396;10.696;2023-04-12T06:31:11;8.13;;;2.70;;
29550;SDS011;16488;52.396;10.696;2023-04-12T06:33:37;15.27;;;3.33;;
29550;SDS011;16488;52.396;10.696;2023-04-12T06:36:03;6.00;;;2.80;;
29550;SDS011;16488;52.396;10.696;2023-04-12T06:38:29;6.72;;;2.67;;
29550;SDS011;16488;52.396;10.696;2023-04-12T06:40:54;6.07;;;2.70;;
29550;SDS011;16488;52.396;10.696;2023-04-12T06:43:20;4.40;;;2.75;;
29550;SDS011;16488;52.396;10.696;2023-04-12T06:45:47;11.52;;;3.30;;
29550;SDS011;16488;52.396;10.696;2023-04-12T06:48:14;11.30;;;3.22;;
29550;SDS011;16488;52.396;10.696;2023-04-12T06:50:40;5.60;;;2.65;;
29550;SDS011;16488;52.396;10.696;2023-04-12T06:53:05;3.88;;;2.35;;
29550;SDS011;16488;52.396;10.696;2023-04-12T06:55:31;8.27;;;2.33;;
29550;SDS011;16488;52.396;10.696;2023-04-12T06:57:57;5.65;;;2.55;;
29550;SDS011;16488;52.396;10.696;2023-04-12T07:00:23;7.88;;;3.08;;
29550;SDS011;16488;52.396;10.696;2023-04-12T07:02:48;10.35;;;3.53;;
29550;SDS011;16488;52.396;10.696;2023-04-12T07:05:14;9.15;;;3.35;;
29550;SDS011;16488;52.396;10.696;2023-04-12T07:07:40;7.85;;;3.15;;
29550;SDS011;16488;52.396;10.696;2023-04-12T07:10:06;7.22;;;3.15;;
29550;SDS011;16488;52.396;10.696;2023-04-12T07:12:32;5.43;;;2.92;;
29550;SDS011;16488;52.396;10.696;2023-04-12T07:14:57;12.95;;;3.90;;
29550;SDS011;16488;52.396;10.696;2023-04-12T07:17:23;10.05;;;3.45;;
29550;SDS011;16488;52.396;10.696;2023-04-12T07:19:51;6.03;;;3.25;;
29550;SDS011;16488;52.396;10.696;2023-04-12T07:22:20;12.10;;;4.43;;
29550;SDS011;16488;52.396;10.696;2023-04-12T07:24:46;7.38;;;3.40;;
29550;SDS011;16488;52.396;10.696;2023-04-12T07:27:12;7.80;;;3.30;;
29550;SDS011;16488;52.396;10.696;2023-04-12T07:29:38;6.85;;;3.28;;
29550;SDS011;16488;52.396;10.696;2023-04-12T07:32:04;11.25;;;3.88;;
29550;SDS011;16488;52.396;10.696;2023-04-12T07:34:30;8.35;;;3.05;;
29550;SDS011;16488;52.396;10.696;2023-04-12T07:36:56;15.77;;;3.55;;
29550;SDS011;16488;52.396;10.696;2023-04-12T07:39:21;7.03;;;3.08;;
29550;SDS011;16488;52.396;10.696;2023-04-12T07:41:47;8.13;;;3.03;;
29550;SDS011;16488;52.396;10.696;2023-04-12T07:44:13;10.45;;;2.83;;
29550;SDS011;16488;52.396;10.696;2023-04-12T07:46:39;12.13;;;2.90;;
29550;SDS011;16488;52.396;10.696;2023-04-12T07:49:06;6.47;;;2.80;;
29550;SDS011;16488;52.396;10.696;2023-04-12T07:51:32;7.78;;;3.15;;
29550;SDS011;16488;52.396;10.696;2023-04-12T07:53:58;5.45;;;2.60;;
29550;SDS011;16488;52.396;10.696;2023-04-12T07:56:23;9.53;;;2.73;;
29550;SDS011;16488;52.396;10.696;2023-04-12T07:58:49;8.35;;;3.08;;
29550;SDS011;16488;52.396;10.696;2023-04-12T08:01:15;8.43;;;3.33;;
29550;SDS011;16488;52.396;10.696;2023-04-12T08:03:40;5.13;;;2.83;;
29550;SDS011;16488;52.396;10.696;2023-04-12T08:06:06;10.33;;;3.40;;
29550;SDS011;16488;52.396;10.696;2023-04-12T08:08:32;8.40;;;3.50;;
29550;SDS011;16488;52.396;10.696;2023-04-12T08:10:58;10.77;;;4.25;;
29550;SDS011;16488;52.396;10.696;2023-04-12T08:13:24;9.05;;;2.83;;
29550;SDS011;16488;52.396;10.696;2023-04-12T08:15:50;9.50;;;3.75;;
29550;SDS011;16488;52.396;10.696;2023-04-12T08:18:16;8.20;;;3.47;;
29550;SDS011;16488;52.396;10.696;2023-04-12T08:20:41;7.45;;;3.88;;
29550;SDS011;16488;52.396;10.696;2023-04-12T08:23:08;6.55;;;3.72;;
29550;SDS011;16488;52.396;10.696;2023-04-12T08:25:35;9.00;;;3.00;;
29550;SDS011;16488;52.396;10.696;2023-04-12T08:28:00;14.65;;;3.72;;
29550;SDS011;16488;52.396;10.696;2023-04-12T08:30:27;9.30;;;4.15;;
29550;SDS011;16488;52.396;10.696;2023-04-12T08:32:53;10.32;;;3.45;;
29550;SDS011;16488;52.396;10.696;2023-04-12T08:35:19;9.00;;;3.40;;
29550;SDS011;16488;52.396;10.696;2023-04-12T08:37:44;12.32;;;2.88;;
29550;SDS011;16488;52.396;10.696;2023-04-12T08:40:10;5.70;;;3.17;;
29550;SDS011;16488;52.396;10.696;2023-04-12T08:42:36;5.53;;;3.00;;
29550;SDS011;16488;52.396;10.696;2023-04-12T08:45:08;11.07;;;4.22;;
29550;SDS011;16488;52.396;10.696;2023-04-12T08:47:37;10.48;;;3.63;;
29550;SDS011;16488;52.396;10.696;2023-04-12T08:50:08;6.53;;;3.33;;
29550;SDS011;16488;52.396;10.696;2023-04-12T08:52:37;5.90;;;2.90;;
29550;SDS011;16488;52.396;10.696;2023-04-12T08:55:04;7.43;;;3.70;;
29550;SDS011;16488;52.396;10.696;2023-04-12T08:57:31;11.75;;;3.33;;
29550;SDS011;16488;52.396;10.696;2023-04-12T08:59:58;8.35;;;2.67;;
29550;SDS011;16488;52.396;10.696;2023-04-12T09:02:25;10.15;;;3.53;;
29550;SDS011;16488;52.396;10.696;2023-04-12T09:04:51;10.70;;;2.72;;
29550;SDS011;16488;52.396;10.696;2023-04-12T09:07:20;10.02;;;3.35;;
29550;SDS011;16488;52.396;10.696;2023-04-12T09:09:47;5.60;;;3.08;;
29550;SDS011;16488;52.396;10.696;2023-04-12T09:12:14;11.30;;;3.85;;
29550;SDS011;16488;52.396;10.696;2023-04-12T09:14:40;9.95;;;3.45;;
29550;SDS011;16488;52.396;10.696;2023-04-12T09:17:22;13.60;;;4.15;;
29550;SDS011;16488;52.396;10.696;2023-04-12T09:19:49;7.93;;;3.72;;
29550;SDS011;16488;52.396;10.696;2023-04-12T09:22:14;9.55;;;3.05;;
29550;SDS011;16488;52.396;10.696;2023-04-12T09:24:47;10.93;;;3.92;;
29550;SDS011;16488;52.396;10.696;2023-04-12T09:27:16;10.52;;;3.30;;
29550;SDS011;16488;52.396;10.696;2023-04-12T09:29:44;11.20;;;3.53;;
29550;SDS011;16488;52.396;10.696;2023-04-12T09:32:15;9.43;;;3.67;;
29550;SDS011;16488;52.396;10.696;2023-04-12T09:34:55;15.02;;;3.58;;
29550;SDS011;16488;52.396;10.696;2023-04-12T09:37:22;7.95;;;4.00;;
29550;SDS011;16488;52.396;10.696;2023-04-12T09:42:23;10.95;;;3.30;;
29550;SDS011;16488;52.396;10.696;2023-04-12T09:44:49;7.68;;;3.33;;
29550;SDS011;16488;52.396;10.696;2023-04-12T09:47:15;11.25;;;3.42;;
29550;SDS011;16488;52.396;10.696;2023-04-12T09:49:41;9.57;;;2.50;;
29550;SDS011;16488;52.396;10.696;2023-04-12T09:52:09;6.47;;;2.53;;
29550;SDS011;16488;52.396;10.696;2023-04-12T09:54:43;6.57;;;3.13;;
29550;SDS011;16488;52.396;10.696;2023-04-12T09:57:10;2.78;;;1.42;;
29550;SDS011;16488;52.396;10.696;2023-04-12T09:59:37;7.00;;;2.00;;
29550;SDS011;16488;52.396;10.696;2023-04-12T10:02:05;5.00;;;2.25;;
29550;SDS011;16488;52.396;10.696;2023-04-12T10:04:46;10.43;;;2.42;;
29550;SDS011;16488;52.396;10.696;2023-04-12T10:07:12;3.78;;;1.88;;
29550;SDS011;16488;52.396;10.696;2023-04-12T10:09:39;12.50;;;2.58;;
29550;SDS011;16488;52.396;10.696;2023-04-12T10:12:05;8.95;;;2.15;;
29550;SDS011;16488;52.396;10.696;2023-04-12T10:14:32;6.05;;;2.00;;
29550;SDS011;16488;52.396;10.696;2023-04-12T10:16:59;6.93;;;2.05;;
29550;SDS011;16488;52.396;10.696;2023-04-12T10:19:27;6.57;;;2.13;;
29550;SDS011;16488;52.396;10.696;2023-04-12T10:21:57;6.45;;;2.47;;
29550;SDS011;16488;52.396;10.696;2023-04-12T10:24:25;4.97;;;1.70;;
29550;SDS011;16488;52.396;10.696;2023-04-12T10:26:52;9.60;;;2.47;;
29550;SDS011;16488;52.396;10.696;2023-04-12T10:29:33;9.55;;;3.53;;
29550;SDS011;16488;52.396;10.696;2023-04-12T10:32:21;9.75;;;1.92;;
29550;SDS011;16488;52.396;10.696;2023-04-12T10:34:51;11.70;;;2.63;;
29550;SDS011;16488;52.396;10.696;2023-04-12T10:37:18;10.02;;;2.35;;
29550;SDS011;16488;52.396;10.696;2023-04-12T10:39:44;8.10;;;2.10;;
29550;SDS011;16488;52.396;10.696;2023-04-12T10:44:56;12.60;;;3.30;;
29550;SDS011;16488;52.396;10.696;2023-04-12T10:50:25;4.93;;;2.20;;
29550;SDS011;16488;52.396;10.696;2023-04-12T10:55:39;6.75;;;3.03;;
29550;SDS011;16488;52.396;10.696;2023-04-12T10:58:06;7.13;;;3.40;;
29550;SDS011;16488;52.396;10.696;2023-04-12T11:03:23;8.40;;;2.58;;
29550;SDS011;16488;52.396;10.696;2023-04-12T11:05:57;5.75;;;2.80;;
29550;SDS011;16488;52.396;10.696;2023-04-12T11:08:25;7.35;;;2.83;;
29550;SDS011;16488;52.396;10.696;2023-04-12T11:10:57;10.15;;;3.50;;
29550;SDS011;16488;52.396;10.696;2023-04-12T11:13:25;9.57;;;3.35;;
29550;SDS011;16488;52.396;10.696;2023-04-12T11:15:53;5.82;;;2.85;;
29550;SDS011;16488;52.396;10.696;2023-04-12T11:18:20;9.52;;;3.42;;
29550;SDS011;16488;52.396;10.696;2023-04-12T11:20:46;7.55;;;2.90;;
29550;SDS011;16488;52.396;10.696;2023-04-12T11:23:12;9.57;;;3.08;;
29550;SDS011;16488;52.396;10.696;2023-04-12T11:25:39;9.50;;;2.97;;
29550;SDS011;16488;52.396;10.696;2023-04-12T11:28:05;5.30;;;3.10;;
29550;SDS011;16488;52.396;10.696;2023-04-12T11:30:31;5.17;;;3.00;;
29550;SDS011;16488;52.396;10.696;2023-04-12T11:32:56;9.63;;;2.93;;
29550;SDS011;16488;52.396;10.696;2023-04-12T11:35:22;11.45;;;2.38;;
29550;SDS011;16488;52.396;10.696;2023-04-12T11:37:51;6.80;;;3.05;;
29550;SDS011;16488;52.396;10.696;2023-04-12T11:40:20;7.13;;;2.95;;
29550;SDS011;16488;52.396;10.696;2023-04-12T11:42:47;8.43;;;2.70;;
29550;SDS011;16488;52.396;10.696;2023-04-12T11:45:17;8.52;;;3.15;;
29550;SDS011;16488;52.396;10.696;2023-04-12T11:47:44;8.27;;;3.10;;
29550;SDS011;16488;52.396;10.696;2023-04-12T11:52:35;7.88;;;2.80;;
29550;SDS011;16488;52.396;10.696;2023-04-12T11:55:02;9.95;;;2.55;;
29550;SDS011;16488;52.396;10.696;2023-04-12T11:57:31;8.23;;;2.90;;
29550;SDS011;16488;52.396;10.696;2023-04-12T11:59:57;8.05;;;3.03;;
29550;SDS011;16488;52.396;10.696;2023-04-12T12:02:24;7.13;;;2.60;;
29550;SDS011;16488;52.396;10.696;2023-04-12T12:04:50;9.38;;;2.78;;
29550;SDS011;16488;52.396;10.696;2023-04-12T12:09:43;3.67;;;2.13;;
29550;SDS011;16488;52.396;10.696;2023-04-12T12:12:09;8.73;;;3.33;;
29550;SDS011;16488;52.396;10.696;2023-04-12T12:14:36;5.45;;;2.63;;
29550;SDS011;16488;52.396;10.696;2023-04-12T12:17:06;6.43;;;2.30;;
29550;SDS011;16488;52.396;10.696;2023-04-12T12:19:36;6.07;;;2.20;;
29550;SDS011;16488;52.396;10.696;2023-04-12T12:22:09;3.83;;;2.25;;
29550;SDS011;16488;52.396;10.696;2023-04-12T12:27:33;6.78;;;2.33;;
29550;SDS011;16488;52.396;10.696;2023-04-12T12:30:03;8.25;;;3.17;;
29550;SDS011;16488;52.396;10.696;2023-04-12T12:32:31;6.95;;;2.80;;
29550;SDS011;16488;52.396;10.696;2023-04-12T12:34:58;6.05;;;2.72;;
29550;SDS011;16488;52.396;10.696;2023-04-12T12:37:25;10.50;;;3.25;;
29550;SDS011;16488;52.396;10.696;2023-04-12T12:40:01;5.03;;;2.90;;
29550;SDS011;16488;52.396;10.696;2023-04-12T12:42:32;5.18;;;3.50;;
29550;SDS011;16488;52.396;10.696;2023-04-12T12:44:58;9.05;;;4.03;;
29550;SDS011;16488;52.396;10.696;2023-04-12T12:47:24;14.85;;;3.58;;
29550;SDS011;16488;52.396;10.696;2023-04-12T12:49:50;6.88;;;3.40;;
29550;SDS011;16488;52.396;10.696;2023-04-12T12:52:15;7.47;;;3.15;;
29550;SDS011;16488;52.396;10.696;2023-04-12T12:54:41;9.10;;;3.45;;
29550;SDS011;16488;52.396;10.696;2023-04-12T12:57:07;6.93;;;2.90;;
29550;SDS011;16488;52.396;10.696;2023-04-12T12:59:32;5.60;;;3.08;;
29550;SDS011;16488;52.396;10.696;2023-04-12T13:01:58;7.65;;;2.83;;
29550;SDS011;16488;52.396;10.696;2023-04-12T13:04:24;5.95;;;3.00;;
29550;SDS011;16488;52.396;10.696;2023-04-12T13:06:50;4.40;;;2.78;;
29550;SDS011;16488;52.396;10.696;2023-04-12T13:09:16;10.30;;;3.05;;
29550;SDS011;16488;52.396;10.696;2023-04-12T13:11:42;3.50;;;2.50;;
29550;SDS011;16488;52.396;10.696;2023-04-12T13:14:07;5.97;;;3.22;;
29550;SDS011;16488;52.396;10.696;2023-04-12T13:16:33;5.55;;;2.83;;
29550;SDS011;16488;52.396;10.696;2023-04-12T13:18:58;7.80;;;3.53;;
29550;SDS011;16488;52.396;10.696;2023-04-12T13:21:24;9.83;;;3.20;;
29550;SDS011;16488;52.396;10.696;2023-04-12T13:23:51;5.88;;;4.05;;
29550;SDS011;16488;52.396;10.696;2023-04-12T13:26:16;6.65;;;4.28;;
29550;SDS011;16488;52.396;10.696;2023-04-12T13:28:42;8.13;;;4.63;;
29550;SDS011;16488;52.396;10.696;2023-04-12T13:31:08;6.45;;;4.10;;
29550;SDS011;16488;52.396;10.696;2023-04-12T13:33:33;9.30;;;3.23;;
29550;SDS011;16488;52.396;10.696;2023-04-12T13:35:59;8.50;;;3.60;;
29550;SDS011;16488;52.396;10.696;2023-04-12T13:38:25;10.13;;;3.57;;
29550;SDS011;16488;52.396;10.696;2023-04-12T13:40:50;9.38;;;3.67;;
29550;SDS011;16488;52.396;10.696;2023-04-12T13:43:16;8.95;;;4.93;;
29550;SDS011;16488;52.396;10.696;2023-04-12T13:45:42;5.85;;;4.22;;
29550;SDS011;16488;52.396;10.696;2023-04-12T13:48:08;7.38;;;3.95;;
29550;SDS011;16488;52.396;10.696;2023-04-12T13:50:34;9.00;;;4.25;;
29550;SDS011;16488;52.396;10.696;2023-04-12T13:53:00;5.10;;;3.95;;
29550;SDS011;16488;52.396;10.696;2023-04-12T13:55:25;7.70;;;4.35;;
29550;SDS011;16488;52.396;10.696;2023-04-12T13:57:51;5.88;;;4.05;;
29550;SDS011;16488;52.396;10.696;2023-04-12T14:00:17;13.38;;;5.22;;
29550;SDS011;16488;52.396;10.696;2023-04-12T14:02:43;7.00;;;3.80;;
29550;SDS011;16488;52.396;10.696;2023-04-12T14:05:09;8.02;;;4.50;;
29550;SDS011;16488;52.396;10.696;2023-04-12T14:07:35;7.97;;;4.07;;
29550;SDS011;16488;52.396;10.696;2023-04-12T14:10:01;6.50;;;3.45;;
29550;SDS011;16488;52.396;10.696;2023-04-12T14:12:27;7.68;;;3.78;;
29550;SDS011;16488;52.396;10.696;2023-04-12T14:14:52;4.03;;;3.20;;
29550;SDS011;16488;52.396;10.696;2023-04-12T14:17:18;6.25;;;4.13;;
29550;SDS011;16488;52.396;10.696;2023-04-12T14:19:43;7.40;;;3.88;;
29550;SDS011;16488;52.396;10.696;2023-04-12T14:22:09;6.90;;;3.65;;
29550;SDS011;16488;52.396;10.696;2023-04-12T14:24:35;7.68;;;3.78;;
29550;SDS011;16488;52.396;10.696;2023-04-12T14:27:01;5.13;;;3.60;;
29550;SDS011;16488;52.396;10.696;2023-04-12T14:29:28;8.20;;;3.55;;
29550;SDS011;16488;52.396;10.696;2023-04-12T14:31:54;6.15;;;3.53;;
29550;SDS011;16488;52.396;10.696;2023-04-12T14:34:19;11.80;;;4.38;;
29550;SDS011;16488;52.396;10.696;2023-04-12T14:36:45;6.75;;;4.03;;
29550;SDS011;16488;52.396;10.696;2023-04-12T14:39:10;8.50;;;4.17;;
29550;SDS011;16488;52.396;10.696;2023-04-12T14:41:36;7.93;;;4.60;;
29550;SDS011;16488;52.396;10.696;2023-04-12T14:44:02;8.25;;;4.57;;
29550;SDS011;16488;52.396;10.696;2023-04-12T14:46:27;5.15;;;4.43;;
29550;SDS011;16488;52.396;10.696;2023-04-12T14:48:54;6.45;;;4.28;;
29550;SDS011;16488;52.396;10.696;2023-04-12T14:51:20;6.60;;;4.43;;
29550;SDS011;16488;52.396;10.696;2023-04-12T14:53:46;6.00;;;4.03;;
29550;SDS011;16488;52.396;10.696;2023-04-12T14:56:15;6.97;;;4.32;;
29550;SDS011;16488;52.396;10.696;2023-04-12T14:58:52;7.32;;;4.13;;
29550;SDS011;16488;52.396;10.696;2023-04-12T15:01:19;9.82;;;4.32;;
29550;SDS011;16488;52.396;10.696;2023-04-12T15:06:11;4.57;;;3.45;;
29550;SDS011;16488;52.396;10.696;2023-04-12T15:11:09;7.03;;;3.30;;
29550;SDS011;16488;52.396;10.696;2023-04-12T15:13:39;7.40;;;3.50;;
29550;SDS011;16488;52.396;10.696;2023-04-12T15:16:06;4.72;;;3.25;;
29550;SDS011;16488;52.396;10.696;2023-04-12T15:18:33;5.30;;;3.40;;
29550;SDS011;16488;52.396;10.696;2023-04-12T15:21:02;3.88;;;3.10;;